sensor_id;sensor_type;location;lat;lon;timestamp;temperature;humidity
42019;DHT22;27703;51.980;5.848;2022-11-30T00:00:35;8.60;99.90
42019;DHT22;27703;51.980;5.848;2022-11-30T00:03:01;8.60;99.90
42019;DHT22;27703;51.980;5.848;2022-11-30T00:05:27;8.60;99.90
42019;DHT22;27703;51.980;5.848;2022-11-30T00:07:52;8.60;99.90
42019;DHT22;27703;51.980;5.848;2022-11-30T00:10:21;8.60;99.90
42019;DHT22;27703;51.980;5.848;2022-11-30T00:12:48;8.60;99.90
42019;DHT22;27703;51.980;5.848;2022-11-30T00:15:14;8.60;99.90
42019;DHT22;27703;51.980;5.848;2022-11-30T00:17:42;8.60;99.90
42019;DHT22;27703;51.980;5.848;2022-11-30T00:20:08;8.60;99.90
42019;DHT22;27703;51.980;5.848;2022-11-30T00:22:34;8.60;99.90
42019;DHT22;27703;51.980;5.848;2022-11-30T00:25:00;8.50;99.90
42019;DHT22;27703;51.980;5.848;2022-11-30T00:27:28;8.50;99.90
42019;DHT22;27703;51.980;5.848;2022-11-30T00:29:53;8.50;99.90
42019;DHT22;27703;51.980;5.848;2022-11-30T00:32:19;8.50;99.90
42019;DHT22;27703;51.980;5.848;2022-11-30T00:34:44;8.50;99.90
42019;DHT22;27703;51.980;5.848;2022-11-30T00:37:10;8.50;99.90
42019;DHT22;27703;51.980;5.848;2022-11-30T00:39:35;8.50;99.90
42019;DHT22;27703;51.980;5.848;2022-11-30T00:42:01;8.40;99.90
42019;DHT22;27703;51.980;5.848;2022-11-30T00:44:26;8.50;99.90
42019;DHT22;27703;51.980;5.848;2022-11-30T00:46:52;8.50;99.90
42019;DHT22;27703;51.980;5.848;2022-11-30T00:49:17;8.50;99.90
42019;DHT22;27703;51.980;5.848;2022-11-30T00:51:43;8.50;99.90
42019;DHT22;27703;51.980;5.848;2022-11-30T00:54:08;8.40;99.90
42019;DHT22;27703;51.980;5.848;2022-11-30T00:56:34;8.40;99.90
42019;DHT22;27703;51.980;5.848;2022-11-30T00:58:59;8.40;99.90
42019;DHT22;27703;51.980;5.848;2022-11-30T01:01:25;8.30;99.90
42019;DHT22;27703;51.980;5.848;2022-11-30T01:03:50;8.30;99.90
42019;DHT22;27703;51.980;5.848;2022-11-30T01:06:16;8.30;99.90
42019;DHT22;27703;51.980;5.848;2022-11-30T01:08:41;8.30;99.90
42019;DHT22;27703;51.980;5.848;2022-11-30T01:11:14;8.40;99.90
42019;DHT22;27703;51.980;5.848;2022-11-30T01:13:40;8.40;99.90
42019;DHT22;27703;51.980;5.848;2022-11-30T01:16:18;8.30;99.90
42019;DHT22;27703;51.980;5.848;2022-11-30T01:18:43;8.30;99.90
42019;DHT22;27703;51.980;5.848;2022-11-30T01:21:11;8.30;99.90
42019;DHT22;27703;51.980;5.848;2022-11-30T01:23:38;8.30;99.90
42019;DHT22;27703;51.980;5.848;2022-11-30T01:26:04;8.30;99.90
42019;DHT22;27703;51.980;5.848;2022-11-30T01:28:29;8.30;99.90
42019;DHT22;27703;51.980;5.848;2022-11-30T01:30:57;8.30;99.90
42019;DHT22;27703;51.980;5.848;2022-11-30T01:33:22;8.30;99.90
42019;DHT22;27703;51.980;5.848;2022-11-30T01:35:48;8.30;99.90
42019;DHT22;27703;51.980;5.848;2022-11-30T01:38:22;8.30;99.90
42019;DHT22;27703;51.980;5.848;2022-11-30T01:40:50;8.30;99.90
42019;DHT22;27703;51.980;5.848;2022-11-30T01:43:18;8.30;99.90
42019;DHT22;27703;51.980;5.848;2022-11-30T01:45:45;8.30;99.90
42019;DHT22;27703;51.980;5.848;2022-11-30T01:48:11;8.20;99.90
42019;DHT22;27703;51.980;5.848;2022-11-30T01:50:37;8.20;99.90
42019;DHT22;27703;51.980;5.848;2022-11-30T01:53:03;8.20;99.90
42019;DHT22;27703;51.980;5.848;2022-11-30T01:55:36;8.20;99.90
42019;DHT22;27703;51.980;5.848;2022-11-30T01:58:12;8.20;99.90
42019;DHT22;27703;51.980;5.848;2022-11-30T02:00:42;8.20;99.90
42019;DHT22;27703;51.980;5.848;2022-11-30T02:03:31;8.10;99.90
42019;DHT22;27703;51.980;5.848;2022-11-30T02:05:59;8.20;99.90
42019;DHT22;27703;51.980;5.848;2022-11-30T02:08:26;8.20;99.90
42019;DHT22;27703;51.980;5.848;2022-11-30T02:10:54;8.10;99.90
42019;DHT22;27703;51.980;5.848;2022-11-30T02:13:48;8.10;99.90
42019;DHT22;27703;51.980;5.848;2022-11-30T02:22:18;8.10;99.90
42019;DHT22;27703;51.980;5.848;2022-11-30T02:25:07;8.10;99.90
42019;DHT22;27703;51.980;5.848;2022-11-30T02:27:55;8.10;99.90
42019;DHT22;27703;51.980;5.848;2022-11-30T02:30:23;8.00;99.90
42019;DHT22;27703;51.980;5.848;2022-11-30T02:33:04;8.00;99.90
42019;DHT22;27703;51.980;5.848;2022-11-30T02:35:34;8.00;99.90
42019;DHT22;27703;51.980;5.848;2022-11-30T02:38:02;8.00;99.90
42019;DHT22;27703;51.980;5.848;2022-11-30T02:40:28;8.00;99.90
42019;DHT22;27703;51.980;5.848;2022-11-30T02:42:56;8.00;99.90
42019;DHT22;27703;51.980;5.848;2022-11-30T02:48:13;7.90;99.90
42019;DHT22;27703;51.980;5.848;2022-11-30T02:50:47;7.90;99.90
42019;DHT22;27703;51.980;5.848;2022-11-30T02:53:14;7.90;99.90
42019;DHT22;27703;51.980;5.848;2022-11-30T02:55:40;8.00;99.90
42019;DHT22;27703;51.980;5.848;2022-11-30T02:58:06;7.90;99.90
42019;DHT22;27703;51.980;5.848;2022-11-30T03:00:32;7.90;99.90
42019;DHT22;27703;51.980;5.848;2022-11-30T03:02:57;7.90;99.90
42019;DHT22;27703;51.980;5.848;2022-11-30T03:05:23;7.90;99.90
42019;DHT22;27703;51.980;5.848;2022-11-30T03:07:49;8.00;99.90
42019;DHT22;27703;51.980;5.848;2022-11-30T03:10:14;8.00;99.90
42019;DHT22;27703;51.980;5.848;2022-11-30T03:12:40;8.00;99.90
42019;DHT22;27703;51.980;5.848;2022-11-30T03:15:06;7.90;99.90
42019;DHT22;27703;51.980;5.848;2022-11-30T03:17:31;7.90;99.90
42019;DHT22;27703;51.980;5.848;2022-11-30T03:19:57;7.90;99.90
42019;DHT22;27703;51.980;5.848;2022-11-30T03:22:23;7.90;99.90
42019;DHT22;27703;51.980;5.848;2022-11-30T03:24:48;7.90;99.90
42019;DHT22;27703;51.980;5.848;2022-11-30T03:27:14;7.90;99.90
42019;DHT22;27703;51.980;5.848;2022-11-30T03:29:40;7.90;99.90
42019;DHT22;27703;51.980;5.848;2022-11-30T03:32:05;7.90;99.90
42019;DHT22;27703;51.980;5.848;2022-11-30T03:34:31;8.00;99.90
42019;DHT22;27703;51.980;5.848;2022-11-30T03:36:56;8.00;99.90
42019;DHT22;27703;51.980;5.848;2022-11-30T03:39:22;8.00;99.90
42019;DHT22;27703;51.980;5.848;2022-11-30T03:41:49;7.90;99.90
42019;DHT22;27703;51.980;5.848;2022-11-30T03:44:14;7.90;99.90
42019;DHT22;27703;51.980;5.848;2022-11-30T03:46:40;7.90;99.90
42019;DHT22;27703;51.980;5.848;2022-11-30T03:49:05;8.00;99.90
42019;DHT22;27703;51.980;5.848;2022-11-30T03:51:31;7.90;99.90
42019;DHT22;27703;51.980;5.848;2022-11-30T03:53:58;7.90;99.90
42019;DHT22;27703;51.980;5.848;2022-11-30T03:56:23;7.90;99.90
42019;DHT22;27703;51.980;5.848;2022-11-30T03:58:50;7.80;99.90
42019;DHT22;27703;51.980;5.848;2022-11-30T04:01:18;7.80;99.90
42019;DHT22;27703;51.980;5.848;2022-11-30T04:03:47;7.80;99.90
42019;DHT22;27703;51.980;5.848;2022-11-30T04:06:13;7.70;99.90
42019;DHT22;27703;51.980;5.848;2022-11-30T04:08:39;7.70;99.90
42019;DHT22;27703;51.980;5.848;2022-11-30T04:11:05;7.70;99.90
42019;DHT22;27703;51.980;5.848;2022-11-30T04:13:32;7.60;99.90
42019;DHT22;27703;51.980;5.848;2022-11-30T04:15:59;7.50;99.90
42019;DHT22;27703;51.980;5.848;2022-11-30T04:18:25;7.50;99.90
42019;DHT22;27703;51.980;5.848;2022-11-30T04:20:56;7.40;99.90
42019;DHT22;27703;51.980;5.848;2022-11-30T04:23:22;7.40;99.90
42019;DHT22;27703;51.980;5.848;2022-11-30T04:25:49;7.30;99.90
42019;DHT22;27703;51.980;5.848;2022-11-30T04:28:15;7.30;99.90
42019;DHT22;27703;51.980;5.848;2022-11-30T04:30:41;7.20;99.90
42019;DHT22;27703;51.980;5.848;2022-11-30T04:33:07;7.20;99.90
42019;DHT22;27703;51.980;5.848;2022-11-30T04:35:33;7.20;99.90
42019;DHT22;27703;51.980;5.848;2022-11-30T04:37:59;7.10;99.90
42019;DHT22;27703;51.980;5.848;2022-11-30T04:40:25;7.10;99.90
42019;DHT22;27703;51.980;5.848;2022-11-30T04:42:50;7.00;99.90
42019;DHT22;27703;51.980;5.848;2022-11-30T04:45:16;7.00;99.90
42019;DHT22;27703;51.980;5.848;2022-11-30T04:47:41;6.90;99.90
42019;DHT22;27703;51.980;5.848;2022-11-30T04:50:08;6.80;99.90
42019;DHT22;27703;51.980;5.848;2022-11-30T04:52:34;6.80;99.90
42019;DHT22;27703;51.980;5.848;2022-11-30T04:55:00;6.70;99.90
42019;DHT22;27703;51.980;5.848;2022-11-30T04:57:25;6.70;99.90
42019;DHT22;27703;51.980;5.848;2022-11-30T04:59:51;6.60;99.90
42019;DHT22;27703;51.980;5.848;2022-11-30T05:02:17;6.60;99.90
42019;DHT22;27703;51.980;5.848;2022-11-30T05:04:42;6.60;99.90
42019;DHT22;27703;51.980;5.848;2022-11-30T05:07:08;6.60;99.90
42019;DHT22;27703;51.980;5.848;2022-11-30T05:09:34;6.60;99.90
42019;DHT22;27703;51.980;5.848;2022-11-30T05:11:59;6.50;99.90
42019;DHT22;27703;51.980;5.848;2022-11-30T05:14:25;6.50;99.90
42019;DHT22;27703;51.980;5.848;2022-11-30T05:16:50;6.50;99.90
42019;DHT22;27703;51.980;5.848;2022-11-30T05:19:16;6.50;99.90
42019;DHT22;27703;51.980;5.848;2022-11-30T05:21:42;6.40;99.90
42019;DHT22;27703;51.980;5.848;2022-11-30T05:24:09;6.40;99.90
42019;DHT22;27703;51.980;5.848;2022-11-30T05:26:35;6.40;99.90
42019;DHT22;27703;51.980;5.848;2022-11-30T05:29:01;6.40;99.90
42019;DHT22;27703;51.980;5.848;2022-11-30T05:31:27;6.40;99.90
42019;DHT22;27703;51.980;5.848;2022-11-30T05:33:53;6.40;99.90
42019;DHT22;27703;51.980;5.848;2022-11-30T05:36:19;6.40;99.90
42019;DHT22;27703;51.980;5.848;2022-11-30T05:38:45;6.40;99.90
42019;DHT22;27703;51.980;5.848;2022-11-30T05:41:11;6.40;99.90
42019;DHT22;27703;51.980;5.848;2022-11-30T05:43:37;6.40;99.90
42019;DHT22;27703;51.980;5.848;2022-11-30T05:46:04;6.40;99.90
42019;DHT22;27703;51.980;5.848;2022-11-30T05:48:30;6.40;99.90
42019;DHT22;27703;51.980;5.848;2022-11-30T05:51:04;6.40;99.90
42019;DHT22;27703;51.980;5.848;2022-11-30T05:53:31;6.40;99.90
42019;DHT22;27703;51.980;5.848;2022-11-30T05:56:01;6.40;99.90
42019;DHT22;27703;51.980;5.848;2022-11-30T05:58:27;6.40;99.90
42019;DHT22;27703;51.980;5.848;2022-11-30T06:00:52;6.30;99.90
42019;DHT22;27703;51.980;5.848;2022-11-30T06:03:18;6.30;99.90
42019;DHT22;27703;51.980;5.848;2022-11-30T06:05:43;6.30;99.90
42019;DHT22;27703;51.980;5.848;2022-11-30T06:08:09;6.20;99.90
42019;DHT22;27703;51.980;5.848;2022-11-30T06:10:34;6.20;99.90
42019;DHT22;27703;51.980;5.848;2022-11-30T06:13:05;6.20;99.90
42019;DHT22;27703;51.980;5.848;2022-11-30T06:15:31;6.20;99.90
42019;DHT22;27703;51.980;5.848;2022-11-30T06:17:56;6.10;99.90
42019;DHT22;27703;51.980;5.848;2022-11-30T06:20:22;6.10;99.90
42019;DHT22;27703;51.980;5.848;2022-11-30T06:22:47;6.10;99.90
42019;DHT22;27703;51.980;5.848;2022-11-30T06:25:13;6.00;99.90
42019;DHT22;27703;51.980;5.848;2022-11-30T06:27:39;6.00;99.90
42019;DHT22;27703;51.980;5.848;2022-11-30T06:30:05;6.00;99.90
42019;DHT22;27703;51.980;5.848;2022-11-30T06:32:30;6.00;99.90
42019;DHT22;27703;51.980;5.848;2022-11-30T06:34:56;6.00;99.90
42019;DHT22;27703;51.980;5.848;2022-11-30T06:37:21;6.00;99.90
42019;DHT22;27703;51.980;5.848;2022-11-30T06:39:47;6.00;99.90
42019;DHT22;27703;51.980;5.848;2022-11-30T06:42:13;6.00;99.90
42019;DHT22;27703;51.980;5.848;2022-11-30T06:44:38;6.00;99.90
42019;DHT22;27703;51.980;5.848;2022-11-30T06:47:04;6.00;99.90
42019;DHT22;27703;51.980;5.848;2022-11-30T06:49:29;6.00;99.90
42019;DHT22;27703;51.980;5.848;2022-11-30T06:51:55;6.00;99.90
42019;DHT22;27703;51.980;5.848;2022-11-30T06:54:20;5.90;99.90
42019;DHT22;27703;51.980;5.848;2022-11-30T06:56:47;5.90;99.90
42019;DHT22;27703;51.980;5.848;2022-11-30T06:59:12;6.00;99.90
42019;DHT22;27703;51.980;5.848;2022-11-30T07:01:38;5.90;99.90
42019;DHT22;27703;51.980;5.848;2022-11-30T07:04:03;5.90;99.90
42019;DHT22;27703;51.980;5.848;2022-11-30T07:06:29;5.90;99.90
42019;DHT22;27703;51.980;5.848;2022-11-30T07:08:55;5.90;99.90
42019;DHT22;27703;51.980;5.848;2022-11-30T07:11:20;5.90;99.90
42019;DHT22;27703;51.980;5.848;2022-11-30T07:13:46;5.90;99.90
42019;DHT22;27703;51.980;5.848;2022-11-30T07:16:11;5.80;99.90
42019;DHT22;27703;51.980;5.848;2022-11-30T07:18:37;5.70;99.90
42019;DHT22;27703;51.980;5.848;2022-11-30T07:21:04;5.70;99.90
42019;DHT22;27703;51.980;5.848;2022-11-30T07:23:30;5.70;99.90
42019;DHT22;27703;51.980;5.848;2022-11-30T07:26:15;5.70;99.90
42019;DHT22;27703;51.980;5.848;2022-11-30T07:28:43;5.70;99.90
42019;DHT22;27703;51.980;5.848;2022-11-30T07:31:18;5.70;99.90
42019;DHT22;27703;51.980;5.848;2022-11-30T07:33:44;5.70;99.90
42019;DHT22;27703;51.980;5.848;2022-11-30T07:36:10;5.70;99.90
42019;DHT22;27703;51.980;5.848;2022-11-30T07:38:36;5.80;99.90
42019;DHT22;27703;51.980;5.848;2022-11-30T07:41:02;5.80;99.90
42019;DHT22;27703;51.980;5.848;2022-11-30T07:43:28;5.80;99.90
42019;DHT22;27703;51.980;5.848;2022-11-30T07:45:54;5.90;99.90
42019;DHT22;27703;51.980;5.848;2022-11-30T07:48:20;5.90;99.90
42019;DHT22;27703;51.980;5.848;2022-11-30T07:50:46;5.90;99.90
42019;DHT22;27703;51.980;5.848;2022-11-30T07:53:12;5.90;99.90
42019;DHT22;27703;51.980;5.848;2022-11-30T07:55:37;5.90;99.90
42019;DHT22;27703;51.980;5.848;2022-11-30T07:58:03;5.90;99.90
42019;DHT22;27703;51.980;5.848;2022-11-30T08:00:28;5.90;99.90
42019;DHT22;27703;51.980;5.848;2022-11-30T08:02:54;5.90;99.90
42019;DHT22;27703;51.980;5.848;2022-11-30T08:05:19;6.00;99.90
42019;DHT22;27703;51.980;5.848;2022-11-30T08:07:50;6.10;99.90
42019;DHT22;27703;51.980;5.848;2022-11-30T08:10:16;6.00;99.90
42019;DHT22;27703;51.980;5.848;2022-11-30T08:12:41;6.00;99.90
42019;DHT22;27703;51.980;5.848;2022-11-30T08:15:07;6.10;99.90
42019;DHT22;27703;51.980;5.848;2022-11-30T08:17:33;6.10;99.90
42019;DHT22;27703;51.980;5.848;2022-11-30T08:19:58;6.10;99.90
42019;DHT22;27703;51.980;5.848;2022-11-30T08:22:24;6.20;99.90
42019;DHT22;27703;51.980;5.848;2022-11-30T08:24:49;6.20;99.90
42019;DHT22;27703;51.980;5.848;2022-11-30T08:27:15;6.30;99.90
42019;DHT22;27703;51.980;5.848;2022-11-30T08:29:40;6.30;99.90
42019;DHT22;27703;51.980;5.848;2022-11-30T08:32:06;6.30;99.90
42019;DHT22;27703;51.980;5.848;2022-11-30T08:34:31;6.30;99.90
42019;DHT22;27703;51.980;5.848;2022-11-30T08:36:57;6.40;99.90
42019;DHT22;27703;51.980;5.848;2022-11-30T08:39:22;6.40;99.90
42019;DHT22;27703;51.980;5.848;2022-11-30T08:41:48;6.40;99.90
42019;DHT22;27703;51.980;5.848;2022-11-30T08:44:14;6.40;99.90
42019;DHT22;27703;51.980;5.848;2022-11-30T08:46:39;6.50;99.90
42019;DHT22;27703;51.980;5.848;2022-11-30T08:49:05;6.50;99.90
42019;DHT22;27703;51.980;5.848;2022-11-30T08:51:30;6.50;99.90
42019;DHT22;27703;51.980;5.848;2022-11-30T08:53:56;6.60;99.90
42019;DHT22;27703;51.980;5.848;2022-11-30T08:56:22;6.60;99.90
42019;DHT22;27703;51.980;5.848;2022-11-30T08:58:48;6.60;99.90
42019;DHT22;27703;51.980;5.848;2022-11-30T09:03:40;6.70;99.90
42019;DHT22;27703;51.980;5.848;2022-11-30T09:06:15;6.70;99.90
42019;DHT22;27703;51.980;5.848;2022-11-30T09:08:42;6.70;99.90
42019;DHT22;27703;51.980;5.848;2022-11-30T09:11:13;6.70;99.90
42019;DHT22;27703;51.980;5.848;2022-11-30T09:13:39;6.80;99.90
42019;DHT22;27703;51.980;5.848;2022-11-30T09:16:05;6.80;99.90
42019;DHT22;27703;51.980;5.848;2022-11-30T09:18:32;6.80;99.90
42019;DHT22;27703;51.980;5.848;2022-11-30T09:21:03;6.80;99.90
42019;DHT22;27703;51.980;5.848;2022-11-30T09:23:29;6.90;99.90
42019;DHT22;27703;51.980;5.848;2022-11-30T09:25:56;6.90;99.90
42019;DHT22;27703;51.980;5.848;2022-11-30T09:28:22;7.00;99.90
42019;DHT22;27703;51.980;5.848;2022-11-30T09:30:47;7.00;99.90
42019;DHT22;27703;51.980;5.848;2022-11-30T09:33:13;7.00;99.90
42019;DHT22;27703;51.980;5.848;2022-11-30T09:35:38;7.10;99.90
42019;DHT22;27703;51.980;5.848;2022-11-30T09:38:04;7.10;99.90
42019;DHT22;27703;51.980;5.848;2022-11-30T09:40:30;7.10;99.90
42019;DHT22;27703;51.980;5.848;2022-11-30T09:45:56;7.20;99.90
42019;DHT22;27703;51.980;5.848;2022-11-30T09:51:12;7.20;99.90
42019;DHT22;27703;51.980;5.848;2022-11-30T09:53:47;7.20;99.90
42019;DHT22;27703;51.980;5.848;2022-11-30T09:56:24;7.20;99.90
42019;DHT22;27703;51.980;5.848;2022-11-30T09:58:58;7.30;99.90
42019;DHT22;27703;51.980;5.848;2022-11-30T10:01:24;7.30;99.90
42019;DHT22;27703;51.980;5.848;2022-11-30T10:03:50;7.30;99.90
42019;DHT22;27703;51.980;5.848;2022-11-30T10:06:32;7.30;99.90
42019;DHT22;27703;51.980;5.848;2022-11-30T10:12:04;7.30;99.90
42019;DHT22;27703;51.980;5.848;2022-11-30T10:14:56;7.40;99.90
42019;DHT22;27703;51.980;5.848;2022-11-30T10:20:40;7.50;99.90
42019;DHT22;27703;51.980;5.848;2022-11-30T10:26:25;7.50;99.90
42019;DHT22;27703;51.980;5.848;2022-11-30T10:28:56;7.60;99.90
42019;DHT22;27703;51.980;5.848;2022-11-30T10:31:37;7.70;99.90
42019;DHT22;27703;51.980;5.848;2022-11-30T10:37:33;8.00;99.90
42019;DHT22;27703;51.980;5.848;2022-11-30T10:42:41;8.40;99.90
42019;DHT22;27703;51.980;5.848;2022-11-30T10:45:12;8.50;99.90
42019;DHT22;27703;51.980;5.848;2022-11-30T10:48:11;8.60;99.90
42019;DHT22;27703;51.980;5.848;2022-11-30T10:50:38;8.80;99.90
42019;DHT22;27703;51.980;5.848;2022-11-30T10:53:04;8.80;99.90
42019;DHT22;27703;51.980;5.848;2022-11-30T10:55:35;8.90;99.90
42019;DHT22;27703;51.980;5.848;2022-11-30T10:58:08;9.00;99.90
42019;DHT22;27703;51.980;5.848;2022-11-30T11:00:37;9.10;99.90
42019;DHT22;27703;51.980;5.848;2022-11-30T11:03:21;9.20;99.90
42019;DHT22;27703;51.980;5.848;2022-11-30T11:06:04;9.30;99.90
42019;DHT22;27703;51.980;5.848;2022-11-30T11:08:31;9.30;99.90
42019;DHT22;27703;51.980;5.848;2022-11-30T11:10:57;9.40;99.90
42019;DHT22;27703;51.980;5.848;2022-11-30T11:13:41;9.40;99.90
42019;DHT22;27703;51.980;5.848;2022-11-30T11:16:10;9.40;99.90
42019;DHT22;27703;51.980;5.848;2022-11-30T11:18:51;9.50;99.90
42019;DHT22;27703;51.980;5.848;2022-11-30T11:21:18;9.50;99.90
42019;DHT22;27703;51.980;5.848;2022-11-30T11:23:46;9.50;99.90
42019;DHT22;27703;51.980;5.848;2022-11-30T11:26:22;9.50;99.90
42019;DHT22;27703;51.980;5.848;2022-11-30T11:28:51;9.60;99.90
42019;DHT22;27703;51.980;5.848;2022-11-30T11:31:41;9.60;99.90
42019;DHT22;27703;51.980;5.848;2022-11-30T11:34:31;9.70;99.90
42019;DHT22;27703;51.980;5.848;2022-11-30T11:37:30;9.70;99.90
42019;DHT22;27703;51.980;5.848;2022-11-30T11:42:27;9.70;99.90
42019;DHT22;27703;51.980;5.848;2022-11-30T11:44:56;9.70;99.90
42019;DHT22;27703;51.980;5.848;2022-11-30T11:47:45;9.70;99.90
42019;DHT22;27703;51.980;5.848;2022-11-30T11:53:10;9.70;99.90
42019;DHT22;27703;51.980;5.848;2022-11-30T11:55:42;9.80;99.90
42019;DHT22;27703;51.980;5.848;2022-11-30T11:58:15;9.80;99.90
42019;DHT22;27703;51.980;5.848;2022-11-30T12:00:43;9.90;99.90
42019;DHT22;27703;51.980;5.848;2022-11-30T12:05:56;9.90;99.90
42019;DHT22;27703;51.980;5.848;2022-11-30T12:08:35;9.90;99.90
42019;DHT22;27703;51.980;5.848;2022-11-30T12:11:16;10.00;99.90
42019;DHT22;27703;51.980;5.848;2022-11-30T12:13:44;10.10;99.90
42019;DHT22;27703;51.980;5.848;2022-11-30T12:16:42;10.10;99.90
42019;DHT22;27703;51.980;5.848;2022-11-30T12:19:23;10.30;99.90
42019;DHT22;27703;51.980;5.848;2022-11-30T12:30:36;10.10;99.90
42019;DHT22;27703;51.980;5.848;2022-11-30T12:33:11;10.00;99.90
42019;DHT22;27703;51.980;5.848;2022-11-30T12:39:09;9.60;99.90
42019;DHT22;27703;51.980;5.848;2022-11-30T12:41:58;9.50;99.90
42019;DHT22;27703;51.980;5.848;2022-11-30T12:50:23;9.30;99.90
42019;DHT22;27703;51.980;5.848;2022-11-30T12:53:05;9.20;99.90
42019;DHT22;27703;51.980;5.848;2022-11-30T13:01:04;9.20;99.90
42019;DHT22;27703;51.980;5.848;2022-11-30T13:03:42;9.10;99.90
42019;DHT22;27703;51.980;5.848;2022-11-30T13:06:39;9.10;99.90
42019;DHT22;27703;51.980;5.848;2022-11-30T13:09:17;9.10;99.90
42019;DHT22;27703;51.980;5.848;2022-11-30T13:11:50;9.10;99.90
42019;DHT22;27703;51.980;5.848;2022-11-30T13:14:22;9.10;99.90
42019;DHT22;27703;51.980;5.848;2022-11-30T13:17:02;9.10;99.90
42019;DHT22;27703;51.980;5.848;2022-11-30T13:22:22;9.20;99.90
42019;DHT22;27703;51.980;5.848;2022-11-30T13:24:55;9.40;99.90
42019;DHT22;27703;51.980;5.848;2022-11-30T13:27:39;9.40;99.90
42019;DHT22;27703;51.980;5.848;2022-11-30T13:30:18;9.30;99.90
42019;DHT22;27703;51.980;5.848;2022-11-30T13:32:44;9.30;99.90
42019;DHT22;27703;51.980;5.848;2022-11-30T13:38:02;9.10;99.90
42019;DHT22;27703;51.980;5.848;2022-11-30T13:40:28;9.10;99.90
42019;DHT22;27703;51.980;5.848;2022-11-30T13:42:54;9.10;99.90
42019;DHT22;27703;51.980;5.848;2022-11-30T13:45:32;9.10;99.90
42019;DHT22;27703;51.980;5.848;2022-11-30T13:48:15;9.10;99.90
42019;DHT22;27703;51.980;5.848;2022-11-30T13:50:41;9.00;99.90
42019;DHT22;27703;51.980;5.848;2022-11-30T13:53:23;9.00;99.90
42019;DHT22;27703;51.980;5.848;2022-11-30T13:55:50;9.00;99.90
42019;DHT22;27703;51.980;5.848;2022-11-30T13:58:18;9.00;99.90
42019;DHT22;27703;51.980;5.848;2022-11-30T14:05:55;8.90;99.90
42019;DHT22;27703;51.980;5.848;2022-11-30T14:10:54;8.90;99.90
42019;DHT22;27703;51.980;5.848;2022-11-30T14:23:21;8.70;99.90
42019;DHT22;27703;51.980;5.848;2022-11-30T14:25:53;8.70;99.90
42019;DHT22;27703;51.980;5.848;2022-11-30T14:28:34;8.70;99.90
42019;DHT22;27703;51.980;5.848;2022-11-30T14:31:07;8.70;99.90
42019;DHT22;27703;51.980;5.848;2022-11-30T14:36:14;8.70;99.90
42019;DHT22;27703;51.980;5.848;2022-11-30T14:38:41;8.70;99.90
42019;DHT22;27703;51.980;5.848;2022-11-30T14:41:18;8.70;99.90
42019;DHT22;27703;51.980;5.848;2022-11-30T14:46:24;8.70;99.90
42019;DHT22;27703;51.980;5.848;2022-11-30T14:49:14;8.60;99.90
42019;DHT22;27703;51.980;5.848;2022-11-30T14:51:42;8.60;99.90
42019;DHT22;27703;51.980;5.848;2022-11-30T14:54:18;8.60;99.90
42019;DHT22;27703;51.980;5.848;2022-11-30T14:56:51;8.60;99.90
42019;DHT22;27703;51.980;5.848;2022-11-30T15:01:57;8.60;99.90
42019;DHT22;27703;51.980;5.848;2022-11-30T15:04:24;8.60;99.90
42019;DHT22;27703;51.980;5.848;2022-11-30T15:06:52;8.50;99.90
42019;DHT22;27703;51.980;5.848;2022-11-30T15:09:21;8.50;99.90
42019;DHT22;27703;51.980;5.848;2022-11-30T15:11:50;8.60;99.90
42019;DHT22;27703;51.980;5.848;2022-11-30T15:14:16;8.60;99.90
42019;DHT22;27703;51.980;5.848;2022-11-30T15:16:47;8.60;99.90
42019;DHT22;27703;51.980;5.848;2022-11-30T15:19:25;8.50;99.90
42019;DHT22;27703;51.980;5.848;2022-11-30T15:21:52;8.50;99.90
42019;DHT22;27703;51.980;5.848;2022-11-30T15:24:18;8.50;99.90
42019;DHT22;27703;51.980;5.848;2022-11-30T15:29:37;8.50;99.90
42019;DHT22;27703;51.980;5.848;2022-11-30T15:32:04;8.50;99.90
42019;DHT22;27703;51.980;5.848;2022-11-30T15:34:35;8.50;99.90
42019;DHT22;27703;51.980;5.848;2022-11-30T15:37:01;8.40;99.90
42019;DHT22;27703;51.980;5.848;2022-11-30T15:39:28;8.40;99.90
42019;DHT22;27703;51.980;5.848;2022-11-30T15:41:59;8.40;99.90
42019;DHT22;27703;51.980;5.848;2022-11-30T15:44:45;8.40;99.90
42019;DHT22;27703;51.980;5.848;2022-11-30T15:49:53;8.40;99.90
42019;DHT22;27703;51.980;5.848;2022-11-30T15:52:24;8.40;99.90
42019;DHT22;27703;51.980;5.848;2022-11-30T15:54:52;8.40;99.90
42019;DHT22;27703;51.980;5.848;2022-11-30T15:57:24;8.30;99.90
42019;DHT22;27703;51.980;5.848;2022-11-30T16:02:35;8.30;99.90
42019;DHT22;27703;51.980;5.848;2022-11-30T16:07:34;8.40;99.90
42019;DHT22;27703;51.980;5.848;2022-11-30T16:10:24;8.30;99.90
42019;DHT22;27703;51.980;5.848;2022-11-30T16:12:52;8.30;99.90
42019;DHT22;27703;51.980;5.848;2022-11-30T16:17:46;8.30;99.90
42019;DHT22;27703;51.980;5.848;2022-11-30T16:20:13;8.30;99.90
42019;DHT22;27703;51.980;5.848;2022-11-30T16:22:44;8.30;99.90
42019;DHT22;27703;51.980;5.848;2022-11-30T16:25:21;8.30;99.90
42019;DHT22;27703;51.980;5.848;2022-11-30T16:27:47;8.30;99.90
42019;DHT22;27703;51.980;5.848;2022-11-30T16:30:19;8.30;99.90
42019;DHT22;27703;51.980;5.848;2022-11-30T16:32:45;8.30;99.90
42019;DHT22;27703;51.980;5.848;2022-11-30T16:35:19;8.30;99.90
42019;DHT22;27703;51.980;5.848;2022-11-30T16:37:44;8.30;99.90
42019;DHT22;27703;51.980;5.848;2022-11-30T16:40:11;8.30;99.90
42019;DHT22;27703;51.980;5.848;2022-11-30T16:42:37;8.30;99.90
42019;DHT22;27703;51.980;5.848;2022-11-30T16:45:03;8.30;99.90
42019;DHT22;27703;51.980;5.848;2022-11-30T16:47:29;8.20;99.90
42019;DHT22;27703;51.980;5.848;2022-11-30T16:49:54;8.20;99.90
42019;DHT22;27703;51.980;5.848;2022-11-30T16:52:20;8.20;99.90
42019;DHT22;27703;51.980;5.848;2022-11-30T16:54:45;8.20;99.90
42019;DHT22;27703;51.980;5.848;2022-11-30T16:57:11;8.20;99.90
42019;DHT22;27703;51.980;5.848;2022-11-30T16:59:36;8.20;99.90
42019;DHT22;27703;51.980;5.848;2022-11-30T17:02:02;8.20;99.90
42019;DHT22;27703;51.980;5.848;2022-11-30T17:04:28;8.20;99.90
42019;DHT22;27703;51.980;5.848;2022-11-30T17:06:55;8.20;99.90
42019;DHT22;27703;51.980;5.848;2022-11-30T17:09:21;8.20;99.90
42019;DHT22;27703;51.980;5.848;2022-11-30T17:11:48;8.20;99.90
42019;DHT22;27703;51.980;5.848;2022-11-30T17:14:17;8.20;99.90
42019;DHT22;27703;51.980;5.848;2022-11-30T17:16:44;8.10;99.90
42019;DHT22;27703;51.980;5.848;2022-11-30T17:19:09;8.10;99.90
42019;DHT22;27703;51.980;5.848;2022-11-30T17:21:39;8.10;99.90
42019;DHT22;27703;51.980;5.848;2022-11-30T17:24:07;8.10;99.90
42019;DHT22;27703;51.980;5.848;2022-11-30T17:26:32;8.10;99.90
42019;DHT22;27703;51.980;5.848;2022-11-30T17:28:58;8.10;99.90
42019;DHT22;27703;51.980;5.848;2022-11-30T17:31:24;8.10;99.90
42019;DHT22;27703;51.980;5.848;2022-11-30T17:33:49;8.10;99.90
42019;DHT22;27703;51.980;5.848;2022-11-30T17:36:16;8.10;99.90
42019;DHT22;27703;51.980;5.848;2022-11-30T17:38:43;8.10;99.90
42019;DHT22;27703;51.980;5.848;2022-11-30T17:41:12;8.10;99.90
42019;DHT22;27703;51.980;5.848;2022-11-30T17:43:38;8.10;99.90